OSDI/DAM METAR and TAF weather

Enter ICAO airport designator
Station Type Date Time Source
OSDI METAR 2019/05/19 20:00 UTC NOAA

OSDI 192000Z 15014KT CAVOK 18/08 Q1014


Station Type Date Time Source
OSDI Decoded METAR 2019/05/19 20:00 UTC NOAA

Damascus Int. Airport, Syria (OSDI) 33-25N 036-31E 609M
May 19, 2019 - 04:00 PM EDT / 2019.05.19 2000 UTC
Wind: from the SSE (150 degrees) at 16 MPH (14 KT):0
Visibility: greater than 7 mile(s):0
Temperature: 64 F (18 C)
Dew Point: 46 F (8 C)
Relative Humidity: 51%
Pressure (altimeter): 29.94 in. Hg (1014 hPa)
ob: OSDI 192000Z 15014KT CAVOK 18/08 Q1014
cycle: 20

Station Type Date Time Source
OSDI TAF 2019/05/19 18:57 UTC NOAA

TAF TAF OSDI 191600Z 1918/2024 22008KT CAVOK
TEMPO 2009/2018 28010G20KT 9999 FEW030

Example: see airport list